createdAt,value
2022-10-10T00:00:29.670Z,99.69
2022-10-10T00:01:29.815Z,99.59
2022-10-10T00:02:29.664Z,99.49
2022-10-10T00:03:29.615Z,99.49
2022-10-10T00:04:29.608Z,99.69
2022-10-10T00:05:29.595Z,99.99
2022-10-10T00:06:32.962Z,99.99
2022-10-10T00:07:29.637Z,99.90
2022-10-10T00:08:29.582Z,99.79
2022-10-10T00:09:29.549Z,99.59
2022-10-10T00:10:29.557Z,99.59
2022-10-10T00:11:29.513Z,99.38
2022-10-10T00:12:29.526Z,99.38
2022-10-10T00:13:29.514Z,99.38
2022-10-10T00:14:32.493Z,99.28
2022-10-10T00:15:29.459Z,99.28
2022-10-10T00:16:29.473Z,99.69
2022-10-10T00:17:29.425Z,99.99
2022-10-10T00:18:29.430Z,99.99
2022-10-10T00:19:29.409Z,99.99
2022-10-10T00:20:29.390Z,99.99
2022-10-10T00:21:29.450Z,99.99
2022-10-10T00:22:29.365Z,99.99
2022-10-10T00:23:29.374Z,99.99
2022-10-10T00:24:29.350Z,99.76
2022-10-10T00:25:29.319Z,99.61
2022-10-10T00:26:29.317Z,99.41
2022-10-10T00:27:29.306Z,98.90
2022-10-10T00:28:29.410Z,98.49
2022-10-10T00:29:29.269Z,99.36
2022-10-10T00:30:29.260Z,98.54
2022-10-10T00:31:29.263Z,98.24
2022-10-10T00:32:29.259Z,98.13
2022-10-10T00:33:29.242Z,98.03
2022-10-10T00:34:29.202Z,97.72
2022-10-10T00:35:29.260Z,97.82
2022-10-10T00:36:29.184Z,97.72
2022-10-10T00:37:29.155Z,97.52
2022-10-10T00:38:29.165Z,97.21
2022-10-10T00:39:29.138Z,97.92
2022-10-10T00:40:29.146Z,98.38
2022-10-10T00:41:29.114Z,98.38
2022-10-10T00:42:29.094Z,98.07
2022-10-10T00:43:29.089Z,98.07
2022-10-10T00:44:29.094Z,97.97
2022-10-10T00:45:29.060Z,98.07
2022-10-10T00:46:29.055Z,98.28
2022-10-10T00:47:29.025Z,98.18
2022-10-10T00:48:29.068Z,98.28
2022-10-10T00:49:29.012Z,98.18
2022-10-10T00:50:29.020Z,97.87
2022-10-10T00:51:28.983Z,97.66
2022-10-10T00:52:28.992Z,98.58
2022-10-10T00:53:29.015Z,98.49
2022-10-10T00:54:28.939Z,98.28
2022-10-10T00:55:28.920Z,98.22
2022-10-10T00:56:28.915Z,98.22
2022-10-10T00:57:28.930Z,98.43
2022-10-10T00:58:28.894Z,98.53
2022-10-10T00:59:28.894Z,98.99
2022-10-10T01:00:28.860Z,99.05
2022-10-10T01:01:28.841Z,98.29
2022-10-10T01:02:28.835Z,97.57
2022-10-10T01:03:28.814Z,96.92
2022-10-10T01:04:28.825Z,95.95
2022-10-10T01:05:28.832Z,95.23
2022-10-10T01:06:28.803Z,94.93
2022-10-10T01:07:28.807Z,94.73
2022-10-10T01:08:28.797Z,94.73
2022-10-10T01:09:28.732Z,95.03
2022-10-10T01:10:28.748Z,95.13
2022-10-10T01:11:28.708Z,95.23
2022-10-10T01:12:28.740Z,95.23
2022-10-10T01:13:28.715Z,95.34
2022-10-10T01:14:28.670Z,95.44
2022-10-10T01:15:28.677Z,95.34
2022-10-10T01:16:28.647Z,95.23
2022-10-10T01:17:28.650Z,95.34
2022-10-10T01:18:28.661Z,95.34
2022-10-10T01:19:28.614Z,95.28
2022-10-10T01:20:28.621Z,95.48
2022-10-10T01:21:28.592Z,95.48
2022-10-10T01:22:28.597Z,95.48
2022-10-10T01:23:28.545Z,95.48
2022-10-10T01:24:28.536Z,95.63
2022-10-10T01:25:28.520Z,95.63
2022-10-10T01:26:28.537Z,95.63
2022-10-10T01:27:31.412Z,95.73
2022-10-10T01:28:28.549Z,95.73
2022-10-10T01:29:28.468Z,95.73
2022-10-10T01:30:28.460Z,96.04
2022-10-10T01:31:28.465Z,96.25
2022-10-10T01:32:28.456Z,96.45
2022-10-10T01:33:28.442Z,96.70
2022-10-10T01:34:28.413Z,96.59
2022-10-10T01:35:28.383Z,96.59
2022-10-10T01:36:28.370Z,96.70
2022-10-10T01:37:28.395Z,96.80
2022-10-10T01:38:28.378Z,96.80
2022-10-10T01:39:28.328Z,97.00
2022-10-10T01:40:28.325Z,97.11
2022-10-10T01:41:28.309Z,97.11
2022-10-10T01:42:28.302Z,97.31
2022-10-10T01:43:28.313Z,97.52
2022-10-10T01:44:28.272Z,97.66
2022-10-10T01:45:28.247Z,97.66
2022-10-10T01:46:28.241Z,97.77
2022-10-10T01:47:28.226Z,97.87
2022-10-10T01:48:28.242Z,97.97
2022-10-10T01:49:28.203Z,97.97
2022-10-10T01:50:28.181Z,97.77
2022-10-10T01:51:28.211Z,97.77
2022-10-10T01:52:28.166Z,97.77
2022-10-10T01:53:28.138Z,97.87
2022-10-10T01:54:28.153Z,97.87
2022-10-10T01:55:28.115Z,97.87
2022-10-10T01:56:28.111Z,97.97
2022-10-10T01:57:28.104Z,97.97
2022-10-10T01:58:28.113Z,98.18
2022-10-10T01:59:28.072Z,98.07
2022-10-10T02:04:14.389Z,98.49
2022-10-10T02:05:15.365Z,98.38
2022-10-10T02:06:15.357Z,98.69
2022-10-10T02:07:15.346Z,98.58
2022-10-10T02:08:15.333Z,98.58
2022-10-10T02:09:15.334Z,98.79
2022-10-10T02:10:15.307Z,98.90
2022-10-10T02:11:15.284Z,98.79
2022-10-10T02:12:15.261Z,98.58
2022-10-10T02:13:15.261Z,98.49
2022-10-10T02:14:15.277Z,98.38
2022-10-10T02:15:15.236Z,98.18
2022-10-10T02:16:15.241Z,97.97
2022-10-10T02:17:15.200Z,97.87
2022-10-10T02:18:15.182Z,97.66
2022-10-10T02:19:15.186Z,98.13
2022-10-10T02:20:15.170Z,97.82
2022-10-10T02:21:15.190Z,97.62
2022-10-10T02:22:15.133Z,97.16
2022-10-10T02:23:15.130Z,96.45
2022-10-10T02:24:15.102Z,96.30
2022-10-10T02:25:15.105Z,95.59
2022-10-10T02:26:15.103Z,94.73
2022-10-10T02:27:15.097Z,94.11
2022-10-10T02:28:15.097Z,93.86
2022-10-10T02:29:15.038Z,93.86
2022-10-10T02:30:15.029Z,93.66
2022-10-10T02:31:15.023Z,93.76
2022-10-10T02:32:15.080Z,93.86
2022-10-10T02:33:14.983Z,92.94
2022-10-10T02:34:14.977Z,92.74
2022-10-10T02:35:14.955Z,92.39
2022-10-10T02:36:14.940Z,91.98
2022-10-10T02:37:14.970Z,91.57
2022-10-10T02:38:14.938Z,91.98
2022-10-10T02:39:14.903Z,91.78
2022-10-10T02:40:14.910Z,91.67
2022-10-10T02:41:14.876Z,91.57
2022-10-10T02:42:14.898Z,91.67
2022-10-10T02:43:14.846Z,91.78
2022-10-10T02:44:14.824Z,91.98
2022-10-10T02:45:14.818Z,92.19
2022-10-10T02:46:14.811Z,92.64
2022-10-10T02:47:14.854Z,92.74
2022-10-10T02:48:14.780Z,92.84
2022-10-10T02:49:14.797Z,92.94
2022-10-10T02:50:14.757Z,93.25
2022-10-10T02:51:14.813Z,93.25
2022-10-10T02:52:14.749Z,93.40
2022-10-10T02:53:14.710Z,93.60
2022-10-10T02:54:14.715Z,93.60
2022-10-10T02:55:14.730Z,93.91
2022-10-10T02:56:14.690Z,94.26
2022-10-10T02:57:14.656Z,94.46
2022-10-10T02:58:14.671Z,94.46
2022-10-10T02:59:14.648Z,94.46
2022-10-10T03:00:14.635Z,94.46
2022-10-10T03:01:14.658Z,94.67
2022-10-10T03:02:14.595Z,94.46
2022-10-10T03:03:14.590Z,94.56
2022-10-10T03:04:14.556Z,94.56
2022-10-10T03:05:14.560Z,94.56
2022-10-10T03:06:14.548Z,94.56
2022-10-10T03:07:14.516Z,94.67
2022-10-10T03:08:14.549Z,94.67
2022-10-10T03:09:14.486Z,94.87
2022-10-10T03:10:14.491Z,95.12
2022-10-10T03:11:14.501Z,95.43
2022-10-10T03:12:14.451Z,95.43
2022-10-10T03:13:14.444Z,95.43
2022-10-10T03:14:14.421Z,95.63
2022-10-10T03:15:14.410Z,95.78
2022-10-10T03:16:14.435Z,95.88
2022-10-10T03:17:14.446Z,96.19
2022-10-10T03:18:14.369Z,96.19
2022-10-10T03:19:14.355Z,96.19
2022-10-10T03:20:14.348Z,96.29
2022-10-10T03:21:14.349Z,96.29
2022-10-10T03:22:14.340Z,96.29
2022-10-10T03:23:14.305Z,96.29
2022-10-10T03:24:14.297Z,96.39
2022-10-10T03:25:14.297Z,96.59
2022-10-10T03:26:14.261Z,96.49
2022-10-10T03:27:14.250Z,96.29
2022-10-10T03:28:14.278Z,96.29
2022-10-10T03:29:14.222Z,96.29
2022-10-10T03:30:14.257Z,96.29
2022-10-10T03:31:14.217Z,96.29
2022-10-10T03:32:14.182Z,96.29
2022-10-10T03:33:14.165Z,96.29
2022-10-10T03:34:14.200Z,96.29
2022-10-10T03:35:14.170Z,96.39
2022-10-10T03:36:14.123Z,96.29
2022-10-10T03:37:14.127Z,96.29
2022-10-10T03:38:14.108Z,96.64
2022-10-10T03:39:14.086Z,96.59
2022-10-10T03:40:14.106Z,96.39
2022-10-10T03:41:14.089Z,96.39
2022-10-10T03:42:14.042Z,96.39
2022-10-10T03:43:14.028Z,96.19
2022-10-10T03:44:14.035Z,96.33
2022-10-10T03:45:14.042Z,96.44
2022-10-10T03:46:16.428Z,96.44
2022-10-10T03:47:13.975Z,96.54
2022-10-10T03:48:13.965Z,96.64
2022-10-10T03:49:13.976Z,96.54
2022-10-10T03:50:13.944Z,96.44
2022-10-10T03:51:13.922Z,96.44
2022-10-10T03:52:13.915Z,96.44
2022-10-10T03:53:13.891Z,96.33
2022-10-10T03:54:13.926Z,96.33
2022-10-10T03:55:13.865Z,96.44
2022-10-10T03:56:13.852Z,96.44
2022-10-10T03:57:13.841Z,96.44
2022-10-10T03:58:13.843Z,96.23
2022-10-10T03:59:13.858Z,95.92
2022-10-10T04:00:13.825Z,96.13
2022-10-10T04:01:13.895Z,96.13
2022-10-10T04:02:13.777Z,96.17
2022-10-10T04:03:13.760Z,96.07
2022-10-10T04:04:13.779Z,96.07
2022-10-10T04:05:13.768Z,96.17
2022-10-10T04:06:13.754Z,96.17
2022-10-10T04:07:13.735Z,96.28
2022-10-10T04:08:13.703Z,96.17
2022-10-10T04:09:13.684Z,96.07
2022-10-10T04:10:13.672Z,95.97
2022-10-10T04:11:13.680Z,95.97
2022-10-10T04:12:13.649Z,95.76
2022-10-10T04:13:13.625Z,95.76
2022-10-10T04:14:13.624Z,96.01
2022-10-10T04:15:13.627Z,96.01
2022-10-10T04:16:13.590Z,95.91
2022-10-10T04:17:13.575Z,95.91
2022-10-10T04:18:13.556Z,96.01
2022-10-10T04:19:13.575Z,96.01
2022-10-10T04:20:13.557Z,96.01
2022-10-10T04:21:13.522Z,96.22
2022-10-10T04:22:13.534Z,96.22
2022-10-10T04:23:13.486Z,96.78
2022-10-10T04:24:13.506Z,96.67
2022-10-10T04:25:13.473Z,96.47
2022-10-10T04:26:13.452Z,96.57
2022-10-10T04:27:13.461Z,96.57
2022-10-10T04:28:13.525Z,96.57
2022-10-10T04:29:13.411Z,97.19
2022-10-10T04:30:13.402Z,97.49
2022-10-10T04:31:13.379Z,97.91
2022-10-10T04:32:13.393Z,98.42
2022-10-10T04:33:13.353Z,98.42
2022-10-10T04:34:13.348Z,98.21
2022-10-10T04:35:13.370Z,98.32
2022-10-10T04:36:13.334Z,98.52
2022-10-10T04:37:13.319Z,98.52
2022-10-10T04:38:13.278Z,98.32
2022-10-10T04:39:13.325Z,98.00
2022-10-10T04:40:13.265Z,97.80
2022-10-10T04:41:13.271Z,97.39
2022-10-10T04:42:13.258Z,97.19
2022-10-10T04:43:13.218Z,96.78
2022-10-10T04:44:13.213Z,96.57
2022-10-10T04:45:13.187Z,96.67
2022-10-10T04:46:13.178Z,96.57
2022-10-10T04:47:13.219Z,96.67
2022-10-10T04:48:13.151Z,96.57
2022-10-10T04:49:13.132Z,96.06
2022-10-10T04:50:13.119Z,96.06
2022-10-10T04:51:13.135Z,95.95
2022-10-10T04:52:13.116Z,95.95
2022-10-10T04:53:13.078Z,95.54
2022-10-10T04:54:13.077Z,95.14
2022-10-10T04:55:13.064Z,95.24
2022-10-10T04:56:13.065Z,95.75
2022-10-10T04:57:13.026Z,96.16
2022-10-10T04:58:13.013Z,96.10
2022-10-10T04:59:13.004Z,96.10
2022-10-10T05:00:13.015Z,96.00
2022-10-10T05:01:12.993Z,96.51
2022-10-10T05:02:12.979Z,96.41
2022-10-10T05:03:12.947Z,96.10
2022-10-10T05:04:12.938Z,95.90
2022-10-10T05:05:12.955Z,95.69
2022-10-10T05:06:12.912Z,95.79
2022-10-10T05:07:12.893Z,95.90
2022-10-10T05:08:12.875Z,95.90
2022-10-10T05:09:12.883Z,96.00
2022-10-10T05:10:12.880Z,96.20
2022-10-10T05:11:12.843Z,96.51
2022-10-10T05:12:12.824Z,97.23
2022-10-10T05:13:12.803Z,97.13
2022-10-10T05:14:12.799Z,96.97
2022-10-10T05:15:12.805Z,96.77
2022-10-10T05:16:12.766Z,96.77
2022-10-10T05:17:12.754Z,96.87
2022-10-10T05:18:12.774Z,96.87
2022-10-10T05:19:12.728Z,96.66
2022-10-10T05:20:12.760Z,96.45
2022-10-10T05:21:12.714Z,96.35
2022-10-10T05:22:12.693Z,96.25
2022-10-10T05:23:12.720Z,96.66
2022-10-10T05:24:12.662Z,97.28
2022-10-10T05:25:12.644Z,97.58
2022-10-10T05:26:12.677Z,98.51
2022-10-10T05:27:12.621Z,99.02
2022-10-10T05:28:12.698Z,97.99
2022-10-10T05:29:12.589Z,97.69
2022-10-10T05:30:12.619Z,97.58
2022-10-10T05:31:12.588Z,97.38
2022-10-10T05:32:12.571Z,97.38
2022-10-10T05:33:12.536Z,98.10
2022-10-10T05:34:12.556Z,98.10
2022-10-10T05:35:12.511Z,98.20
2022-10-10T05:36:12.498Z,98.10
2022-10-10T05:37:12.506Z,97.89
2022-10-10T05:38:12.509Z,97.79
2022-10-10T05:39:12.455Z,97.48
2022-10-10T05:40:12.475Z,97.38
2022-10-10T05:41:12.442Z,97.28
2022-10-10T05:42:12.415Z,97.38
2022-10-10T05:43:12.407Z,97.38
2022-10-10T05:44:12.388Z,97.28
2022-10-10T05:45:12.410Z,97.38
2022-10-10T05:46:12.366Z,97.79
2022-10-10T05:47:12.346Z,97.89
2022-10-10T05:48:12.379Z,97.89
2022-10-10T05:49:12.315Z,97.79
2022-10-10T05:50:12.318Z,97.69
2022-10-10T05:51:12.331Z,97.79
2022-10-10T05:52:12.284Z,97.58
2022-10-10T05:53:12.303Z,97.69
2022-10-10T05:54:12.254Z,97.73
2022-10-10T05:55:12.261Z,97.83
2022-10-10T05:56:12.268Z,97.83
2022-10-10T05:57:16.224Z,97.94
2022-10-10T05:58:12.207Z,98.14
2022-10-10T05:59:12.184Z,98.04
2022-10-10T06:00:12.214Z,97.83
2022-10-10T06:01:12.196Z,97.63
2022-10-10T06:02:12.224Z,97.28
2022-10-10T06:03:12.132Z,97.12
2022-10-10T06:04:12.117Z,96.97
2022-10-10T06:05:12.129Z,96.87
2022-10-10T06:06:12.097Z,96.87
2022-10-10T06:07:12.099Z,97.38
2022-10-10T06:08:12.655Z,97.69
2022-10-10T06:09:12.053Z,97.38
2022-10-10T06:10:12.052Z,97.48
2022-10-10T06:11:12.027Z,97.38
2022-10-10T06:12:12.021Z,97.17
2022-10-10T06:13:11.998Z,97.07
2022-10-10T06:14:12.008Z,97.07
2022-10-10T06:15:11.976Z,97.07
2022-10-10T06:16:11.972Z,97.07
2022-10-10T06:17:11.968Z,97.28
2022-10-10T06:18:11.943Z,97.38
2022-10-10T06:19:14.905Z,97.48
2022-10-10T06:20:11.950Z,97.58
2022-10-10T06:21:11.893Z,97.48
2022-10-10T06:22:11.880Z,97.38
2022-10-10T06:23:11.858Z,97.28
2022-10-10T06:24:11.876Z,97.42
2022-10-10T06:25:29.006Z,97.63
2022-10-10T06:26:11.836Z,97.63
2022-10-10T06:27:11.813Z,97.94
2022-10-10T06:28:11.869Z,97.89
2022-10-10T06:29:11.812Z,97.79
2022-10-10T06:30:11.791Z,97.69
2022-10-10T06:31:11.762Z,97.79
2022-10-10T06:32:11.763Z,97.79
2022-10-10T06:33:11.739Z,97.79
2022-10-10T06:34:11.743Z,97.69
2022-10-10T06:35:11.706Z,97.58
2022-10-10T06:36:11.698Z,98.10
2022-10-10T06:37:11.692Z,98.10
2022-10-10T06:38:11.662Z,98.30
2022-10-10T06:39:11.672Z,98.20
2022-10-10T06:40:11.682Z,98.20
2022-10-10T06:41:11.629Z,98.20
2022-10-10T06:42:11.636Z,98.20
2022-10-10T06:43:11.624Z,98.20
2022-10-10T06:44:11.611Z,98.20
2022-10-10T06:45:11.569Z,98.10
2022-10-10T06:46:11.602Z,98.30
2022-10-10T06:47:11.526Z,98.20
2022-10-10T06:48:11.569Z,98.05
2022-10-10T06:49:11.538Z,98.10
2022-10-10T06:50:11.498Z,97.95
2022-10-10T06:51:11.500Z,97.95
2022-10-10T06:52:11.494Z,97.85
2022-10-10T06:53:11.459Z,98.05
2022-10-10T06:54:11.472Z,98.25
2022-10-10T06:55:11.440Z,98.25
2022-10-10T06:56:11.493Z,98.36
2022-10-10T06:57:11.412Z,98.36
2022-10-10T06:58:11.391Z,98.32
2022-10-10T06:59:11.450Z,98.32
2022-10-10T07:00:11.367Z,98.32
2022-10-10T07:01:11.403Z,98.32
2022-10-10T07:02:11.356Z,98.32
2022-10-10T07:03:11.325Z,98.37
2022-10-10T07:04:11.325Z,98.99
2022-10-10T07:05:11.297Z,98.99
2022-10-10T07:06:11.281Z,98.88
2022-10-10T07:07:11.311Z,98.88
2022-10-10T07:08:11.254Z,99.04
2022-10-10T07:09:11.260Z,99.04
2022-10-10T07:10:11.222Z,99.25
2022-10-10T07:11:11.218Z,98.94
2022-10-10T07:12:11.236Z,99.10
2022-10-10T07:13:11.180Z,98.90
2022-10-10T07:14:11.177Z,98.49
2022-10-10T07:15:11.165Z,98.07
2022-10-10T07:16:11.164Z,97.66
2022-10-10T07:17:11.132Z,97.31
2022-10-10T07:18:11.150Z,97.11
2022-10-10T07:19:11.126Z,97.21
2022-10-10T07:20:11.089Z,97.21
2022-10-10T07:21:11.098Z,97.27
2022-10-10T07:22:11.068Z,97.37
2022-10-10T07:23:11.081Z,97.27
2022-10-10T07:24:11.058Z,97.47
2022-10-10T07:25:11.015Z,97.37
2022-10-10T07:26:11.015Z,96.51
2022-10-10T07:27:11.013Z,96.51
2022-10-10T07:28:11.069Z,96.71
2022-10-10T07:29:10.995Z,96.97
2022-10-10T07:30:10.958Z,96.77
2022-10-10T07:31:10.933Z,96.36
2022-10-10T07:32:10.934Z,96.72
2022-10-10T07:33:10.918Z,96.62
2022-10-10T07:34:10.938Z,96.21
2022-10-10T07:35:10.889Z,95.86
2022-10-10T07:36:10.895Z,95.56
2022-10-10T07:37:10.867Z,95.65
2022-10-10T07:38:10.835Z,95.20
2022-10-10T07:39:13.852Z,95.72
2022-10-10T07:40:10.854Z,95.77
2022-10-10T07:41:10.796Z,95.67
2022-10-10T07:42:10.790Z,95.16
2022-10-10T07:43:10.781Z,94.81
2022-10-10T07:44:10.793Z,94.40
2022-10-10T07:45:10.762Z,93.99
2022-10-10T07:46:12.291Z,93.54
2022-10-10T07:47:10.722Z,93.44
2022-10-10T07:48:10.728Z,92.99
2022-10-10T07:49:10.698Z,92.07
2022-10-10T07:50:10.722Z,92.18
2022-10-10T07:51:10.708Z,91.72
2022-10-10T07:52:10.655Z,91.01
2022-10-10T07:53:10.657Z,91.48
2022-10-10T07:54:10.641Z,92.40
2022-10-10T07:55:10.622Z,91.84
2022-10-10T07:56:10.610Z,90.83
2022-10-10T07:57:10.622Z,90.72
2022-10-10T07:58:10.567Z,90.78
2022-10-10T07:59:10.639Z,89.87
2022-10-10T08:00:10.563Z,89.36
2022-10-10T08:01:10.530Z,89.31
2022-10-10T08:02:10.583Z,88.60
2022-10-10T08:03:12.108Z,88.30
2022-10-10T08:04:10.512Z,87.99
2022-10-10T08:05:10.472Z,87.69
2022-10-10T08:06:10.463Z,86.74
2022-10-10T08:07:10.487Z,85.31
2022-10-10T08:08:10.437Z,85.01
2022-10-10T08:09:10.440Z,84.77
2022-10-10T08:10:10.399Z,84.05
2022-10-10T08:11:10.393Z,83.91
2022-10-10T08:12:10.418Z,82.50
2022-10-10T08:13:10.365Z,84.01
2022-10-10T08:14:10.362Z,83.20
2022-10-10T08:16:10.362Z,83.87
2022-10-10T08:17:10.327Z,83.94
2022-10-10T08:18:10.373Z,83.73
2022-10-10T08:19:10.375Z,83.90
2022-10-10T08:20:10.269Z,84.10
2022-10-10T08:21:10.283Z,82.98
2022-10-10T08:22:10.255Z,82.24
2022-10-10T08:23:10.235Z,81.52
2022-10-10T08:24:10.262Z,80.82
2022-10-10T08:25:10.205Z,79.80
2022-10-10T08:26:10.188Z,79.57
2022-10-10T08:27:10.181Z,79.26
2022-10-10T08:28:10.202Z,80.47
2022-10-10T08:29:10.162Z,79.40
2022-10-10T08:30:10.144Z,77.37
2022-10-10T08:31:10.153Z,79.00
2022-10-10T08:32:10.110Z,78.75
2022-10-10T08:33:10.106Z,80.18
2022-10-10T08:34:10.077Z,79.26
2022-10-10T08:35:10.078Z,77.61
2022-10-10T08:36:10.073Z,78.42
2022-10-10T08:37:10.039Z,77.17
2022-10-10T08:38:10.022Z,77.17
2022-10-10T08:39:10.046Z,78.17
2022-10-10T08:40:09.993Z,77.94
2022-10-10T08:41:09.987Z,78.24
2022-10-10T08:42:09.989Z,77.19
2022-10-10T08:43:09.960Z,75.48
2022-10-10T08:44:09.949Z,75.54
2022-10-10T08:45:09.966Z,74.43
2022-10-10T08:46:09.926Z,74.93
2022-10-10T08:47:09.948Z,75.31
2022-10-10T08:48:09.913Z,74.19
2022-10-10T08:49:13.809Z,73.65
2022-10-10T08:50:09.874Z,73.96
2022-10-10T08:51:09.864Z,74.32
2022-10-10T08:52:09.873Z,71.70
2022-10-10T08:53:09.929Z,70.97
2022-10-10T08:54:09.811Z,71.47
2022-10-10T08:55:09.799Z,71.57
2022-10-10T08:56:09.806Z,71.17
2022-10-10T08:57:09.818Z,71.06
2022-10-10T08:58:09.760Z,70.66
2022-10-10T08:59:09.758Z,67.84
2022-10-10T09:00:09.734Z,67.91
2022-10-10T09:01:09.745Z,69.12
2022-10-10T09:02:17.930Z,70.53
2022-10-10T09:03:09.710Z,68.48
2022-10-10T09:04:09.687Z,68.78
2022-10-10T09:05:09.681Z,67.24
2022-10-10T09:06:09.671Z,68.65
2022-10-10T09:07:09.681Z,68.11
2022-10-10T09:08:09.628Z,67.61
2022-10-10T09:09:09.618Z,67.88
2022-10-10T09:10:09.602Z,65.73
2022-10-10T09:11:09.584Z,63.93
2022-10-10T09:12:09.630Z,64.03
2022-10-10T09:13:09.571Z,64.90
2022-10-10T09:14:09.543Z,65.50
2022-10-10T09:15:09.534Z,66.81
2022-10-10T09:16:09.500Z,64.70
2022-10-10T09:17:09.574Z,62.99
2022-10-10T09:18:09.509Z,65.30
2022-10-10T09:19:10.837Z,64.60
2022-10-10T09:20:09.476Z,65.53
2022-10-10T09:21:09.453Z,66.41
2022-10-10T09:22:09.464Z,65.60
2022-10-10T09:23:09.419Z,64.50
2022-10-10T09:24:09.399Z,64.40
2022-10-10T09:25:09.392Z,65.41
2022-10-10T09:26:11.499Z,65.00
2022-10-10T09:27:09.380Z,63.96
2022-10-10T09:28:09.460Z,65.67
2022-10-10T09:29:09.371Z,64.77
2022-10-10T09:30:09.323Z,64.57
2022-10-10T09:31:09.315Z,67.45
2022-10-10T09:32:09.295Z,65.04
2022-10-10T09:33:09.295Z,64.84
2022-10-10T09:34:09.303Z,64.71
2022-10-10T09:35:09.304Z,65.21
2022-10-10T09:36:09.237Z,65.81
2022-10-10T09:37:11.438Z,65.28
2022-10-10T09:38:09.227Z,65.28
2022-10-10T09:39:09.221Z,64.78
2022-10-10T09:40:09.186Z,63.87
2022-10-10T09:41:09.184Z,63.37
2022-10-10T09:42:09.154Z,63.45
2022-10-10T09:43:10.839Z,62.94
2022-10-10T09:44:09.135Z,62.84
2022-10-10T09:45:09.150Z,61.36
2022-10-10T09:46:09.134Z,61.94
2022-10-10T09:47:09.094Z,63.64
2022-10-10T09:48:09.089Z,64.34
2022-10-10T09:49:09.064Z,64.45
2022-10-10T09:50:09.067Z,63.75
2022-10-10T09:51:09.039Z,62.94
2022-10-10T09:52:09.083Z,62.74
2022-10-10T09:53:09.023Z,63.01
2022-10-10T09:54:08.990Z,63.51
2022-10-10T09:55:09.006Z,62.81
2022-10-10T09:56:08.971Z,62.21
2022-10-10T09:57:09.012Z,62.21
2022-10-10T09:58:08.935Z,63.21
2022-10-10T09:59:08.935Z,62.11
2022-10-10T10:00:08.925Z,62.41
2022-10-10T10:01:08.985Z,60.81
2022-10-10T10:02:08.922Z,62.51
2022-10-10T10:03:08.884Z,62.61
2022-10-10T10:04:26.458Z,61.11
2022-10-10T10:05:08.857Z,60.91
2022-10-10T10:06:08.832Z,61.61
2022-10-10T10:07:08.820Z,61.11
2022-10-10T10:08:08.808Z,61.71
2022-10-10T10:09:08.823Z,62.58
2022-10-10T10:10:08.785Z,60.95
2022-10-10T10:11:08.773Z,60.95
2022-10-10T10:12:08.753Z,61.48
2022-10-10T10:13:08.743Z,61.88
2022-10-10T10:14:08.759Z,61.88
2022-10-10T10:15:08.716Z,61.78
2022-10-10T10:16:08.699Z,62.68
2022-10-10T10:17:08.690Z,62.65
2022-10-10T10:18:08.672Z,61.88
2022-10-10T10:19:08.686Z,63.06
2022-10-10T10:20:10.833Z,62.35
2022-10-10T10:21:08.665Z,63.15
2022-10-10T10:22:08.616Z,62.15
2022-10-10T10:23:08.603Z,61.15
2022-10-10T10:24:08.619Z,61.75
2022-10-10T10:25:08.576Z,61.68
2022-10-10T10:26:08.562Z,60.78
2022-10-10T10:27:08.567Z,61.18
2022-10-10T10:28:08.600Z,61.28
2022-10-10T10:29:08.554Z,61.48
2022-10-10T10:30:08.497Z,61.28
2022-10-10T10:31:08.492Z,61.48
2022-10-10T10:32:08.513Z,61.21
2022-10-10T10:33:08.463Z,59.91
2022-10-10T10:34:08.477Z,60.31
2022-10-10T10:35:08.441Z,60.88
2022-10-10T10:36:08.419Z,60.78
2022-10-10T10:37:12.647Z,60.05
2022-10-10T10:38:08.423Z,59.02
2022-10-10T10:39:08.417Z,56.70
2022-10-10T10:40:08.397Z,58.00
2022-10-10T10:41:08.356Z,58.76
2022-10-10T10:42:08.347Z,56.74
2022-10-10T10:43:08.327Z,56.61
2022-10-10T10:44:08.345Z,56.79
2022-10-10T10:45:08.303Z,54.96
2022-10-10T10:46:08.296Z,51.87
2022-10-10T10:47:08.275Z,50.87
2022-10-10T10:48:08.252Z,51.27
2022-10-10T10:49:08.313Z,52.74
2022-10-10T10:50:08.241Z,53.61
2022-10-10T10:51:08.255Z,50.68
2022-10-10T10:52:08.206Z,50.35
2022-10-10T10:53:08.196Z,51.45
2022-10-10T10:54:08.176Z,51.03
2022-10-10T10:55:08.199Z,51.40
2022-10-10T10:56:08.152Z,49.88
2022-10-10T10:57:11.115Z,50.88
2022-10-10T10:58:57.929Z,47.67
2022-10-10T10:59:36.358Z,49.26
2022-10-10T11:00:21.616Z,48.57
2022-10-10T11:01:22.334Z,49.56
2022-10-10T11:02:08.800Z,48.94
2022-10-10T11:03:27.751Z,47.85
2022-10-10T11:05:21.394Z,47.95
2022-10-10T11:05:39.888Z,48.32
2022-10-10T11:06:08.205Z,49.61
2022-10-10T11:07:18.961Z,46.93
2022-10-10T11:08:08.131Z,47.01
2022-10-10T11:09:13.554Z,46.51
2022-10-10T11:10:07.972Z,46.79
2022-10-10T11:11:07.975Z,45.70
2022-10-10T11:12:07.942Z,44.81
2022-10-10T11:13:07.933Z,46.30
2022-10-10T11:14:07.949Z,46.57
2022-10-10T11:15:07.913Z,45.28
2022-10-10T11:16:10.860Z,46.97
2022-10-10T11:17:07.879Z,46.05
2022-10-10T11:18:07.881Z,43.97
2022-10-10T11:19:07.881Z,44.86
2022-10-10T11:20:07.865Z,44.46
2022-10-10T11:21:07.873Z,45.16
2022-10-10T11:22:07.811Z,46.45
2022-10-10T11:32:22.092Z,46.03
2022-10-10T11:32:27.150Z,45.43
2022-10-10T11:33:27.159Z,44.82
2022-10-10T11:34:27.127Z,45.12
2022-10-10T11:35:27.147Z,43.93
2022-10-10T11:36:27.131Z,45.73
2022-10-10T11:37:27.098Z,45.53
2022-10-10T11:38:27.114Z,45.63
2022-10-10T11:39:27.073Z,45.63
2022-10-10T11:40:27.061Z,46.23
2022-10-10T11:41:27.053Z,44.35
2022-10-10T11:42:27.055Z,46.15
2022-10-10T11:43:27.016Z,46.05
2022-10-10T11:44:27.011Z,46.74
2022-10-10T11:45:27.001Z,44.54
2022-10-10T11:46:27.020Z,46.12
2022-10-10T11:47:26.984Z,46.12
2022-10-10T11:48:27.004Z,45.06
2022-10-10T11:49:26.944Z,45.16
2022-10-10T11:50:26.927Z,45.65
2022-10-10T11:51:26.915Z,45.73
2022-10-10T11:52:33.972Z,46.62
2022-10-10T11:53:26.925Z,46.64
2022-10-10T11:54:26.873Z,46.94
2022-10-10T11:55:26.884Z,46.15
2022-10-10T11:56:26.845Z,47.61
2022-10-10T11:57:26.890Z,46.45
2022-10-10T11:58:26.851Z,46.45
2022-10-10T11:59:26.832Z,47.04
2022-10-10T12:00:26.807Z,46.37
2022-10-10T12:01:26.783Z,46.57
2022-10-10T12:02:28.029Z,45.26
2022-10-10T12:03:26.772Z,45.68
2022-10-10T12:04:26.745Z,46.17
2022-10-10T12:05:26.743Z,47.63
2022-10-10T12:06:26.744Z,47.14
2022-10-10T12:07:26.711Z,46.35
2022-10-10T12:08:26.684Z,46.72
2022-10-10T12:09:26.693Z,47.12
2022-10-10T12:10:26.684Z,48.80
2022-10-10T12:11:26.664Z,46.03
2022-10-10T12:12:26.641Z,45.23
2022-10-10T12:13:26.630Z,45.04
2022-10-10T12:14:26.608Z,46.03
2022-10-10T12:15:26.622Z,46.62
2022-10-10T12:16:30.387Z,47.00
2022-10-10T12:17:26.621Z,46.40
2022-10-10T12:18:26.545Z,47.29
2022-10-10T12:19:26.574Z,46.01
2022-10-10T12:20:26.538Z,46.30
2022-10-10T12:21:26.528Z,45.43
2022-10-10T12:22:26.513Z,46.03
2022-10-10T12:23:26.516Z,45.73
2022-10-10T12:24:26.489Z,45.31
2022-10-10T12:25:26.464Z,44.82
2022-10-10T12:26:26.452Z,44.72
2022-10-10T12:27:26.455Z,45.01
2022-10-10T12:28:26.460Z,45.81
2022-10-10T12:29:26.447Z,46.01
2022-10-10T12:30:26.411Z,46.40
2022-10-10T12:31:26.407Z,45.51
2022-10-10T12:32:26.373Z,43.53
2022-10-10T12:33:26.402Z,44.82
2022-10-10T12:34:26.348Z,45.29
2022-10-10T12:35:26.347Z,45.98
2022-10-10T12:36:26.316Z,45.29
2022-10-10T12:37:26.315Z,45.39
2022-10-10T12:38:26.326Z,45.98
2022-10-10T12:39:26.284Z,45.68
2022-10-10T12:40:26.276Z,45.09
2022-10-10T12:41:26.312Z,44.80
2022-10-10T12:42:26.274Z,45.00
2022-10-10T12:43:26.260Z,46.28
2022-10-10T12:44:26.211Z,45.09
2022-10-10T12:45:26.211Z,45.68
2022-10-10T12:46:26.188Z,44.90
2022-10-10T12:47:35.816Z,45.71
2022-10-10T12:48:26.171Z,45.71
2022-10-10T12:49:26.184Z,45.90
2022-10-10T12:50:26.181Z,45.98
2022-10-10T12:51:26.142Z,45.19
2022-10-10T12:52:26.147Z,46.28
2022-10-10T12:53:26.091Z,45.39
2022-10-10T12:54:26.079Z,45.49
2022-10-10T12:55:26.083Z,45.68
2022-10-10T12:56:26.093Z,44.40
2022-10-10T12:57:26.046Z,44.87
2022-10-10T12:58:27.384Z,45.17
2022-10-10T12:59:26.053Z,44.48
2022-10-10T13:00:26.009Z,44.58
2022-10-10T13:01:26.097Z,44.18
2022-10-10T13:02:25.988Z,44.28
2022-10-10T13:03:25.975Z,45.39
2022-10-10T13:04:25.991Z,45.49
2022-10-10T13:05:25.948Z,45.98